Time;durP1;ratioP1;P1;durP2;ratioP2;P2;SDS_P1;SDS_P2;PMS_P1;PMS_P2;Temp;Humidity;BMP_temperature;BMP_pressure;BME280_temperature;BME280_humidity;BME280_pressure;Samples;Min_cycle;Max_cycle;Signal;HPM_P1;HPM_P2
2022/05/20 00:00:47;;;;;;;45.55;39.90;;;;;;;;;;5047758;28;20463;-83
2022/05/20 00:03:13;;;;;;;39.97;34.92;;;;;;;;;;5047310;28;20751;-84
2022/05/20 00:05:39;;;;;;;37.90;34.10;;;;;;;;;;5051264;28;20514;-83
2022/05/20 00:08:06;;;;;;;38.17;34.27;;;;;;;;;;5045498;28;20421;-84
2022/05/20 00:10:34;;;;;;;37.38;33.58;;;;;;;;;;5050016;28;20487;-87
2022/05/20 00:13:00;;;;;;;36.50;32.97;;;;;;;;;;5049472;28;20447;-85
2022/05/20 00:15:27;;;;;;;40.55;36.25;;;;;;;;;;5055213;28;20463;-84
2022/05/20 00:17:54;;;;;;;39.00;34.88;;;;;;;;;;5056133;28;20440;-84
2022/05/20 00:20:21;;;;;;;37.17;33.45;;;;;;;;;;5079163;23;20433;-80
2022/05/20 00:22:47;;;;;;;33.97;30.65;;;;;;;;;;5047565;28;20436;-80
2022/05/20 00:28:00;;;;;;;30.90;27.83;;;;;;;;;;5055262;28;20478;-82
2022/05/20 00:30:27;;;;;;;29.13;26.27;;;;;;;;;;5053238;28;20475;-82
2022/05/20 00:32:53;;;;;;;28.83;25.88;;;;;;;;;;5054319;28;21020;-81
2022/05/20 00:35:20;;;;;;;28.00;25.20;;;;;;;;;;5056856;28;20455;-82
2022/05/20 00:37:46;;;;;;;28.70;25.85;;;;;;;;;;5053289;28;20423;-81
2022/05/20 00:40:15;;;;;;;27.95;25.15;;;;;;;;;;5056217;28;20457;-82
2022/05/20 00:42:42;;;;;;;27.75;25.05;;;;;;;;;;5050725;28;20421;-82
2022/05/20 00:45:11;;;;;;;28.85;25.85;;;;;;;;;;5055579;28;20503;-83
2022/05/20 00:47:37;;;;;;;28.95;25.05;;;;;;;;;;5052600;28;20422;-82
2022/05/20 00:50:07;;;;;;;26.95;24.25;;;;;;;;;;5055666;28;20448;-82
2022/05/20 00:52:35;;;;;;;21.08;19.05;;;;;;;;;;5049667;28;20534;-82
2022/05/20 00:55:05;;;;;;;20.60;18.40;;;;;;;;;;5056293;28;20425;-82
2022/05/20 00:57:33;;;;;;;19.35;17.55;;;;;;;;;;5052813;28;20458;-82
2022/05/20 01:00:02;;;;;;;19.63;17.60;;;;;;;;;;5055098;28;20421;-83
2022/05/20 01:02:31;;;;;;;19.83;17.83;;;;;;;;;;5050097;28;20432;-82
2022/05/20 01:04:59;;;;;;;17.02;15.32;;;;;;;;;;5053840;28;20437;-80
2022/05/20 01:07:27;;;;;;;15.70;14.10;;;;;;;;;;5053366;28;20428;-81
2022/05/20 01:09:53;;;;;;;16.40;14.80;;;;;;;;;;5052715;28;20433;-82
2022/05/20 01:12:20;;;;;;;16.57;14.60;;;;;;;;;;5053898;28;20429;-82
2022/05/20 01:14:48;;;;;;;16.45;13.57;;;;;;;;;;5055381;28;20432;-81
2022/05/20 01:17:14;;;;;;;14.47;13.03;;;;;;;;;;5055895;28;20443;-84
2022/05/20 01:19:43;;;;;;;15.20;13.60;;;;;;;;;;5051366;28;20858;-82
2022/05/20 01:22:11;;;;;;;14.63;12.68;;;;;;;;;;5054993;28;20990;-82
2022/05/20 01:24:39;;;;;;;15.90;14.00;;;;;;;;;;5057610;28;20894;-83
2022/05/20 01:27:05;;;;;;;13.30;12.00;;;;;;;;;;5055429;28;20421;-83
2022/05/20 01:29:31;;;;;;;13.97;12.60;;;;;;;;;;5051922;28;20827;-81
2022/05/20 01:31:58;;;;;;;14.30;12.90;;;;;;;;;;5053654;28;20474;-83
2022/05/20 01:34:24;;;;;;;13.63;12.32;;;;;;;;;;5056725;28;20783;-82
2022/05/20 01:36:50;;;;;;;14.50;13.00;;;;;;;;;;5053797;28;20432;-82
2022/05/20 01:39:17;;;;;;;13.88;12.00;;;;;;;;;;5053717;28;20818;-83
2022/05/20 01:41:48;;;;;;;13.55;12.15;;;;;;;;;;5051206;28;20429;-81
2022/05/20 01:44:18;;;;;;;15.25;12.88;;;;;;;;;;5053773;28;20930;-83
2022/05/20 01:46:46;;;;;;;15.90;13.70;;;;;;;;;;5050271;28;20802;-80
2022/05/20 01:49:22;;;;;;;13.77;12.38;;;;;;;;;;5052516;28;20421;-83
2022/05/20 01:51:51;;;;;;;13.68;12.27;;;;;;;;;;5049731;28;20475;-82
2022/05/20 01:54:19;;;;;;;13.40;12.10;;;;;;;;;;5050962;28;20516;-83
2022/05/20 01:56:50;;;;;;;13.60;12.05;;;;;;;;;;5053252;28;20467;-82
2022/05/20 01:59:18;;;;;;;14.20;11.70;;;;;;;;;;5049760;28;20430;-82
2022/05/20 02:01:58;;;;;;;13.55;12.25;;;;;;;;;;5052588;28;20456;-79
2022/05/20 02:04:29;;;;;;;15.23;13.02;;;;;;;;;;5055801;28;20483;-82
2022/05/20 02:06:58;;;;;;;13.77;12.38;;;;;;;;;;5050105;28;20425;-82
2022/05/20 02:09:26;;;;;;;13.50;12.10;;;;;;;;;;5051632;28;20429;-82
2022/05/20 02:11:55;;;;;;;12.23;11.10;;;;;;;;;;5052370;28;20429;-82
2022/05/20 02:14:24;;;;;;;11.07;10.03;;;;;;;;;;5053945;28;21064;-81
2022/05/20 02:16:52;;;;;;;10.23;9.18;;;;;;;;;;5050717;28;20429;-81
2022/05/20 02:19:20;;;;;;;10.40;9.30;;;;;;;;;;5053321;28;20425;-82
2022/05/20 02:21:48;;;;;;;13.40;9.57;;;;;;;;;;5049895;28;20429;-82
2022/05/20 02:24:16;;;;;;;9.73;8.80;;;;;;;;;;5048954;28;20488;-81
2022/05/20 02:26:44;;;;;;;13.30;8.95;;;;;;;;;;5051911;28;20413;-81
2022/05/20 02:29:13;;;;;;;8.85;7.95;;;;;;;;;;5052056;28;21351;-82
2022/05/20 02:31:42;;;;;;;9.73;8.35;;;;;;;;;;5050158;28;20428;-83
2022/05/20 02:34:08;;;;;;;9.53;8.33;;;;;;;;;;5053538;28;20467;-83
2022/05/20 02:36:35;;;;;;;9.25;7.70;;;;;;;;;;5051180;28;20467;-82
2022/05/20 02:39:02;;;;;;;10.25;8.50;;;;;;;;;;5052795;28;20918;-82
2022/05/20 02:41:29;;;;;;;9.40;7.80;;;;;;;;;;5051610;28;20417;-82
2022/05/20 02:43:55;;;;;;;9.55;7.47;;;;;;;;;;5051530;28;20467;-81
2022/05/20 02:46:23;;;;;;;9.55;7.45;;;;;;;;;;5052278;28;21141;-82
2022/05/20 02:48:49;;;;;;;8.27;7.47;;;;;;;;;;5049019;28;20443;-83
2022/05/20 02:51:17;;;;;;;9.27;7.28;;;;;;;;;;5050865;28;20405;-82
2022/05/20 02:53:43;;;;;;;10.10;7.55;;;;;;;;;;5052361;28;20796;-82
2022/05/20 02:56:09;;;;;;;9.53;7.57;;;;;;;;;;5051545;28;20401;-82
2022/05/20 03:04:13;;;;;;;7.30;6.70;;;;;;;;;;5052725;28;20436;-83
2022/05/20 03:06:40;;;;;;;9.02;7.20;;;;;;;;;;5051362;28;20417;-83
2022/05/20 03:09:07;;;;;;;9.45;8.40;;;;;;;;;;5052376;28;20433;-81
2022/05/20 03:11:34;;;;;;;8.10;7.30;;;;;;;;;;5053191;28;20429;-83
2022/05/20 03:14:01;;;;;;;9.93;7.00;;;;;;;;;;5052713;28;20447;-82
2022/05/20 03:16:27;;;;;;;11.13;7.70;;;;;;;;;;5053152;28;20543;-83
2022/05/20 03:18:53;;;;;;;9.30;6.20;;;;;;;;;;5051725;28;20441;-82
2022/05/20 03:21:21;;;;;;;7.40;6.70;;;;;;;;;;5053050;28;20425;-83
2022/05/20 03:23:47;;;;;;;9.30;6.13;;;;;;;;;;5052337;28;20422;-81
2022/05/20 03:26:15;;;;;;;8.07;7.28;;;;;;;;;;5053364;28;20413;-82
2022/05/20 03:28:42;;;;;;;7.70;6.90;;;;;;;;;;5053179;28;20460;-82
2022/05/20 03:31:09;;;;;;;9.73;6.70;;;;;;;;;;5053042;28;20401;-83
2022/05/20 03:33:36;;;;;;;9.15;6.53;;;;;;;;;;5052563;28;20810;-83
2022/05/20 03:36:02;;;;;;;10.00;6.47;;;;;;;;;;5051135;28;20429;-82
2022/05/20 03:38:30;;;;;;;9.73;7.10;;;;;;;;;;5053210;28;20487;-81
2022/05/20 03:40:56;;;;;;;8.57;6.10;;;;;;;;;;5048189;28;20452;-82
2022/05/20 03:43:23;;;;;;;9.95;6.07;;;;;;;;;;5053289;28;20435;-82
2022/05/20 03:45:49;;;;;;;7.60;6.80;;;;;;;;;;5052726;28;20487;-82
2022/05/20 03:48:15;;;;;;;7.80;6.40;;;;;;;;;;5056117;28;20783;-83
2022/05/20 03:50:41;;;;;;;7.05;6.35;;;;;;;;;;5057274;28;20490;-82
2022/05/20 03:53:08;;;;;;;9.00;6.10;;;;;;;;;;5055003;28;20437;-79
2022/05/20 03:55:35;;;;;;;7.05;6.35;;;;;;;;;;5055295;28;20478;-83
2022/05/20 03:58:02;;;;;;;9.10;6.70;;;;;;;;;;5053667;28;20421;-84
2022/05/20 04:00:28;;;;;;;8.73;6.20;;;;;;;;;;5052237;28;20516;-83
2022/05/20 04:02:53;;;;;;;7.00;6.30;;;;;;;;;;5054978;28;20425;-82
2022/05/20 04:05:20;;;;;;;10.10;7.10;;;;;;;;;;5053864;28;20498;-83
2022/05/20 04:07:46;;;;;;;7.53;6.73;;;;;;;;;;5052401;28;20475;-80
2022/05/20 04:10:12;;;;;;;7.90;6.03;;;;;;;;;;5050632;28;20440;-82
2022/05/20 04:12:40;;;;;;;6.90;6.03;;;;;;;;;;5053550;28;20425;-81
2022/05/20 04:15:08;;;;;;;6.63;5.85;;;;;;;;;;5053125;28;20925;-81
2022/05/20 04:17:34;;;;;;;6.83;5.70;;;;;;;;;;5050958;28;20475;-82
2022/05/20 04:20:00;;;;;;;7.68;6.50;;;;;;;;;;5052192;28;20437;-81
2022/05/20 04:22:28;;;;;;;7.25;6.43;;;;;;;;;;5053212;28;20417;-82
2022/05/20 04:24:54;;;;;;;7.03;6.32;;;;;;;;;;5052427;28;20483;-80
2022/05/20 04:27:21;;;;;;;11.93;7.50;;;;;;;;;;5050431;28;20456;-81
2022/05/20 04:29:49;;;;;;;9.00;7.43;;;;;;;;;;5048440;28;20786;-82
2022/05/20 04:32:15;;;;;;;10.23;7.47;;;;;;;;;;5045775;28;20432;-82
2022/05/20 04:34:41;;;;;;;9.48;6.43;;;;;;;;;;5053206;28;20425;-82
2022/05/20 04:37:07;;;;;;;7.65;6.85;;;;;;;;;;5053060;28;20417;-80
2022/05/20 04:39:34;;;;;;;9.80;7.53;;;;;;;;;;5051441;28;20441;-81
2022/05/20 04:47:30;;;;;;;12.30;7.65;;;;;;;;;;5048296;28;20483;-82
2022/05/20 04:49:57;;;;;;;7.38;6.60;;;;;;;;;;5050956;28;20422;-82
2022/05/20 04:52:23;;;;;;;8.35;7.45;;;;;;;;;;5050831;28;20417;-82
2022/05/20 04:54:51;;;;;;;10.50;7.85;;;;;;;;;;5053233;28;20912;-81
2022/05/20 04:57:22;;;;;;;10.37;7.50;;;;;;;;;;5055371;28;20756;-82
2022/05/20 04:59:48;;;;;;;8.27;7.47;;;;;;;;;;5052426;28;20479;-81
2022/05/20 05:02:14;;;;;;;7.77;7.07;;;;;;;;;;5052195;28;20474;-81
2022/05/20 05:04:42;;;;;;;10.52;7.55;;;;;;;;;;5052717;28;20437;-82
2022/05/20 05:07:09;;;;;;;10.18;7.90;;;;;;;;;;5057646;28;20425;-82
2022/05/20 05:09:36;;;;;;;8.05;7.28;;;;;;;;;;5057498;28;20455;-81
2022/05/20 05:12:03;;;;;;;9.85;8.13;;;;;;;;;;5054891;28;20417;-81
2022/05/20 05:14:29;;;;;;;8.93;7.50;;;;;;;;;;5058760;28;20649;-81
2022/05/20 05:16:55;;;;;;;10.32;8.23;;;;;;;;;;5054529;28;20429;-79
2022/05/20 05:19:22;;;;;;;11.05;7.70;;;;;;;;;;5056673;28;20430;-81
2022/05/20 05:21:49;;;;;;;8.50;7.60;;;;;;;;;;5051212;28;20415;-81
2022/05/20 05:24:16;;;;;;;13.35;8.27;;;;;;;;;;5058109;28;20839;-81
2022/05/20 05:26:42;;;;;;;10.77;7.63;;;;;;;;;;5055087;28;20451;-78
2022/05/20 05:29:08;;;;;;;9.30;7.78;;;;;;;;;;5057042;28;20456;-80
2022/05/20 05:31:34;;;;;;;11.40;7.55;;;;;;;;;;5054233;28;20425;-81
2022/05/20 05:34:01;;;;;;;12.27;8.10;;;;;;;;;;5054773;28;20440;-80
2022/05/20 05:36:27;;;;;;;9.40;8.30;;;;;;;;;;5055604;28;20429;-81
2022/05/20 05:38:55;;;;;;;9.90;7.70;;;;;;;;;;5054612;28;20811;-82
2022/05/20 05:41:21;;;;;;;11.40;8.55;;;;;;;;;;5057160;28;20500;-82
2022/05/20 05:43:48;;;;;;;12.18;8.80;;;;;;;;;;5057066;28;20410;-81
2022/05/20 05:46:14;;;;;;;12.20;8.25;;;;;;;;;;5054388;28;20452;-81
2022/05/20 05:48:40;;;;;;;14.15;9.10;;;;;;;;;;5052593;28;20475;-82
2022/05/20 05:51:07;;;;;;;11.10;8.82;;;;;;;;;;5051802;28;20401;-81
2022/05/20 05:53:33;;;;;;;10.43;8.50;;;;;;;;;;5049522;28;20433;-82
2022/05/20 05:56:01;;;;;;;11.05;8.65;;;;;;;;;;5056154;28;20478;-81
2022/05/20 05:58:28;;;;;;;10.07;8.90;;;;;;;;;;5055761;28;20935;-80
2022/05/20 06:00:55;;;;;;;12.18;8.88;;;;;;;;;;5055276;28;20429;-82
2022/05/20 06:03:21;;;;;;;9.85;7.50;;;;;;;;;;5053873;28;20456;-81
2022/05/20 06:05:48;;;;;;;8.98;8.07;;;;;;;;;;5054521;28;20409;-82
2022/05/20 06:08:14;;;;;;;9.40;8.30;;;;;;;;;;5052083;28;20582;-82
2022/05/20 06:10:42;;;;;;;11.00;8.23;;;;;;;;;;5056226;28;20433;-82
2022/05/20 06:13:10;;;;;;;12.60;8.30;;;;;;;;;;5054559;28;20559;-81
2022/05/20 06:15:37;;;;;;;8.55;7.75;;;;;;;;;;5053951;28;20488;-82
2022/05/20 06:18:04;;;;;;;9.60;7.45;;;;;;;;;;5053257;28;20858;-81
2022/05/20 06:20:30;;;;;;;9.48;7.63;;;;;;;;;;5054528;28;20487;-82
2022/05/20 06:22:57;;;;;;;9.23;8.30;;;;;;;;;;5053467;28;20420;-82
2022/05/20 06:25:24;;;;;;;12.10;7.60;;;;;;;;;;5052557;28;20441;-81
2022/05/20 06:27:50;;;;;;;11.13;7.50;;;;;;;;;;5048420;28;20972;-82
2022/05/20 06:30:19;;;;;;;8.80;7.03;;;;;;;;;;5054634;28;20419;-82
2022/05/20 06:32:45;;;;;;;10.48;7.03;;;;;;;;;;5053567;28;20420;-82
2022/05/20 06:40:44;;;;;;;10.07;8.73;;;;;;;;;;5052529;28;20428;-83
2022/05/20 06:43:10;;;;;;;13.07;9.55;;;;;;;;;;5050781;28;20520;-81
2022/05/20 06:45:38;;;;;;;9.75;7.30;;;;;;;;;;5054833;28;20441;-81
2022/05/20 06:48:05;;;;;;;11.23;7.80;;;;;;;;;;5052912;28;20797;-82
2022/05/20 06:50:31;;;;;;;11.10;7.90;;;;;;;;;;5054751;28;20429;-82
2022/05/20 06:52:58;;;;;;;9.75;7.72;;;;;;;;;;5049355;28;20425;-82
2022/05/20 06:55:24;;;;;;;9.70;6.88;;;;;;;;;;5055877;28;20437;-81
2022/05/20 06:57:51;;;;;;;12.07;10.77;;;;;;;;;;5053623;28;20429;-81
2022/05/20 07:00:18;;;;;;;14.07;9.43;;;;;;;;;;5051024;28;20452;-81
2022/05/20 07:02:45;;;;;;;13.75;12.25;;;;;;;;;;5054483;28;20413;-80
2022/05/20 07:05:12;;;;;;;13.23;11.10;;;;;;;;;;5056655;28;20421;-81
2022/05/20 07:07:39;;;;;;;11.93;9.80;;;;;;;;;;5057566;28;20464;-81
2022/05/20 07:10:05;;;;;;;14.55;11.73;;;;;;;;;;5056713;28;20416;-82
2022/05/20 07:12:32;;;;;;;12.38;10.38;;;;;;;;;;5055441;28;20414;-81
2022/05/20 07:15:00;;;;;;;14.65;11.23;;;;;;;;;;5053892;28;20443;-81
2022/05/20 07:17:27;;;;;;;13.23;11.50;;;;;;;;;;5052759;28;20425;-82
2022/05/20 07:19:55;;;;;;;12.45;11.25;;;;;;;;;;5053192;28;20461;-82
2022/05/20 07:22:21;;;;;;;13.25;10.93;;;;;;;;;;5055882;28;20410;-82
2022/05/20 07:24:47;;;;;;;12.30;9.95;;;;;;;;;;5060906;28;20808;-83
2022/05/20 07:27:14;;;;;;;11.20;10.00;;;;;;;;;;5058465;28;20492;-81
2022/05/20 07:29:40;;;;;;;13.38;11.80;;;;;;;;;;5057434;28;20522;-83
2022/05/20 07:32:07;;;;;;;14.97;11.70;;;;;;;;;;5057507;28;20442;-83
2022/05/20 07:34:33;;;;;;;14.93;12.10;;;;;;;;;;5061725;28;20417;-81
2022/05/20 07:37:01;;;;;;;13.05;11.75;;;;;;;;;;5055913;28;20730;-81
2022/05/20 07:39:27;;;;;;;14.13;11.05;;;;;;;;;;5057529;28;20429;-81
2022/05/20 07:41:55;;;;;;;12.00;9.80;;;;;;;;;;5060312;28;20443;-82
2022/05/20 07:44:21;;;;;;;11.05;8.30;;;;;;;;;;5056447;28;20435;-81
2022/05/20 07:46:48;;;;;;;11.15;8.30;;;;;;;;;;5058192;28;20409;-81
2022/05/20 07:49:14;;;;;;;9.68;7.93;;;;;;;;;;5056409;28;20490;-81
2022/05/20 07:51:42;;;;;;;8.95;6.90;;;;;;;;;;5058423;28;20439;-82
2022/05/20 07:54:11;;;;;;;12.07;7.88;;;;;;;;;;5057549;28;20888;-82
2022/05/20 07:56:40;;;;;;;10.23;6.20;;;;;;;;;;5059984;28;20421;-82
2022/05/20 07:59:07;;;;;;;6.60;5.25;;;;;;;;;;5057381;28;20429;-82
2022/05/20 08:01:35;;;;;;;6.03;5.00;;;;;;;;;;5057178;28;20426;-82
2022/05/20 08:06:49;;;;;;;6.55;4.03;;;;;;;;;;5056925;28;20463;-82
2022/05/20 08:09:16;;;;;;;6.13;3.90;;;;;;;;;;5058018;28;20483;-82
2022/05/20 08:11:42;;;;;;;6.93;4.38;;;;;;;;;;5058609;28;20436;-81
2022/05/20 08:14:09;;;;;;;6.07;4.68;;;;;;;;;;5057769;28;20791;-82
2022/05/20 08:16:35;;;;;;;8.07;4.93;;;;;;;;;;5059741;28;20409;-81
2022/05/20 08:19:01;;;;;;;8.30;5.30;;;;;;;;;;5056738;28;20459;-83
2022/05/20 08:21:27;;;;;;;8.30;4.77;;;;;;;;;;5056504;28;20881;-83
2022/05/20 08:23:54;;;;;;;5.85;4.22;;;;;;;;;;5057702;28;20437;-82
2022/05/20 08:26:21;;;;;;;7.20;4.25;;;;;;;;;;5060520;28;20425;-82
2022/05/20 08:28:48;;;;;;;8.35;4.25;;;;;;;;;;5052220;28;20874;-82
2022/05/20 08:31:14;;;;;;;6.30;3.55;;;;;;;;;;5055185;28;20413;-81
2022/05/20 08:33:41;;;;;;;4.40;2.45;;;;;;;;;;5058700;28;21102;-82
2022/05/20 08:36:07;;;;;;;5.43;3.50;;;;;;;;;;5056143;28;20409;-83
2022/05/20 08:38:33;;;;;;;6.75;3.20;;;;;;;;;;5055934;28;20417;-82
2022/05/20 08:41:00;;;;;;;5.38;3.25;;;;;;;;;;5059774;28;20437;-83
2022/05/20 08:43:30;;;;;;;5.70;3.60;;;;;;;;;;5057886;28;20491;-82
2022/05/20 08:45:56;;;;;;;7.50;3.30;;;;;;;;;;5057607;28;20425;-83
2022/05/20 08:48:23;;;;;;;7.32;3.67;;;;;;;;;;5053133;28;20437;-81
2022/05/20 08:50:50;;;;;;;7.28;3.83;;;;;;;;;;5056077;28;20508;-83
2022/05/20 08:53:18;;;;;;;5.50;3.28;;;;;;;;;;5059144;28;20426;-83
2022/05/20 08:55:45;;;;;;;5.55;3.28;;;;;;;;;;5055082;28;20999;-82
2022/05/20 08:58:13;;;;;;;5.13;2.90;;;;;;;;;;5058464;28;20426;-83
2022/05/20 09:00:40;;;;;;;6.00;3.10;;;;;;;;;;5055790;28;20437;-82
2022/05/20 09:03:08;;;;;;;4.95;2.58;;;;;;;;;;5057779;28;20840;-83
2022/05/20 09:05:38;;;;;;;4.75;2.60;;;;;;;;;;5056408;28;20452;-83
2022/05/20 09:08:06;;;;;;;5.20;2.63;;;;;;;;;;5056552;28;20954;-82
2022/05/20 09:10:34;;;;;;;7.20;3.00;;;;;;;;;;5059369;28;20895;-82
2022/05/20 09:13:19;;;;;;;6.55;2.90;;;;;;;;;;5057079;28;20427;-82
2022/05/20 09:15:55;;;;;;;4.93;3.30;;;;;;;;;;5058664;28;20441;-81
2022/05/20 09:18:31;;;;;;;5.10;3.10;;;;;;;;;;5056447;28;20447;-83
2022/05/20 09:20:58;;;;;;;4.43;2.88;;;;;;;;;;5042519;28;20439;-82
2022/05/20 09:23:25;;;;;;;4.68;3.00;;;;;;;;;;5038190;28;20426;-83
2022/05/20 09:26:00;;;;;;;5.63;3.80;;;;;;;;;;5056563;28;20437;-82
2022/05/20 09:28:30;;;;;;;8.30;4.00;;;;;;;;;;5060559;28;20413;-82
2022/05/20 09:31:05;;;;;;;6.15;4.13;;;;;;;;;;5055521;28;20458;-83
2022/05/20 09:33:35;;;;;;;6.90;4.10;;;;;;;;;;5059854;28;20952;-81
2022/05/20 09:36:02;;;;;;;7.72;3.90;;;;;;;;;;5056047;28;20408;-83
2022/05/20 09:38:33;;;;;;;6.20;3.80;;;;;;;;;;5056749;28;20443;-83
2022/05/20 09:40:59;;;;;;;6.55;3.80;;;;;;;;;;5055689;28;20919;-82
2022/05/20 09:43:28;;;;;;;6.13;3.90;;;;;;;;;;5056823;28;20503;-83
2022/05/20 09:45:55;;;;;;;7.18;4.95;;;;;;;;;;5053821;28;20472;-83
2022/05/20 09:48:25;;;;;;;5.70;4.40;;;;;;;;;;5053251;28;20448;-82
2022/05/20 09:51:02;;;;;;;6.60;4.13;;;;;;;;;;5051807;28;20426;-83
2022/05/20 09:53:34;;;;;;;7.63;4.65;;;;;;;;;;5053549;28;20429;-83
2022/05/20 09:56:12;;;;;;;8.73;4.38;;;;;;;;;;5055303;28;20826;-80
2022/05/20 09:58:39;;;;;;;6.78;4.40;;;;;;;;;;5056485;28;20438;-81
2022/05/20 10:01:07;;;;;;;7.22;4.00;;;;;;;;;;5053502;28;20483;-82
2022/05/20 10:03:40;;;;;;;6.63;4.10;;;;;;;;;;5053139;28;20433;-84
2022/05/20 10:06:09;;;;;;;7.65;5.00;;;;;;;;;;5051799;28;20405;-82
2022/05/20 10:08:38;;;;;;;7.55;4.70;;;;;;;;;;5051815;28;20463;-83
2022/05/20 10:11:07;;;;;;;7.00;4.43;;;;;;;;;;5051732;28;20449;-82
2022/05/20 10:13:40;;;;;;;4.18;3.50;;;;;;;;;;5056067;28;20421;-82
2022/05/20 10:16:10;;;;;;;8.02;4.70;;;;;;;;;;5051169;28;20572;-82
2022/05/20 10:18:42;;;;;;;8.85;5.00;;;;;;;;;;5054895;28;20481;-80
2022/05/20 10:21:11;;;;;;;7.27;4.60;;;;;;;;;;5051604;28;21190;-83
2022/05/20 10:23:43;;;;;;;4.78;4.10;;;;;;;;;;5052304;28;20441;-83
2022/05/20 10:26:12;;;;;;;8.57;4.50;;;;;;;;;;5054826;28;20471;-83
2022/05/20 10:34:16;;;;;;;6.32;4.85;;;;;;;;;;5054796;28;20523;-83
2022/05/20 10:36:51;;;;;;;8.10;5.32;;;;;;;;;;5053951;28;20413;-83
2022/05/20 10:39:25;;;;;;;7.60;5.50;;;;;;;;;;5052856;28;20479;-83
2022/05/20 10:42:05;;;;;;;7.15;4.60;;;;;;;;;;5053275;28;20822;-83
2022/05/20 10:50:19;;;;;;;5.43;4.73;;;;;;;;;;5051612;28;20933;-84
2022/05/20 10:52:54;;;;;;;5.53;4.50;;;;;;;;;;5052289;28;20448;-82
2022/05/20 10:55:25;;;;;;;6.88;5.30;;;;;;;;;;5049638;28;20432;-83
2022/05/20 10:58:18;;;;;;;5.85;5.35;;;;;;;;;;5052339;28;20498;-84
2022/05/20 11:00:50;;;;;;;6.90;6.30;;;;;;;;;;5005940;28;20811;-80
2022/05/20 11:03:33;;;;;;;9.48;7.15;;;;;;;;;;5049944;28;20779;-82
2022/05/20 11:06:11;;;;;;;8.98;7.53;;;;;;;;;;5052560;28;20926;-82
2022/05/20 11:08:45;;;;;;;8.23;7.43;;;;;;;;;;5050089;28;20433;-84
2022/05/20 11:11:18;;;;;;;8.40;7.43;;;;;;;;;;5050994;28;20429;-83
2022/05/20 11:13:51;;;;;;;8.10;7.07;;;;;;;;;;5054659;28;20420;-81
2022/05/20 11:16:25;;;;;;;9.85;8.50;;;;;;;;;;5050773;28;20463;-83
2022/05/20 11:18:58;;;;;;;9.80;8.65;;;;;;;;;;5051171;28;20433;-83
2022/05/20 11:21:34;;;;;;;9.18;8.27;;;;;;;;;;5050658;28;20425;-84
2022/05/20 11:24:08;;;;;;;11.18;10.07;;;;;;;;;;5053666;28;20428;-83
2022/05/20 11:26:45;;;;;;;11.32;10.23;;;;;;;;;;5048723;28;20459;-83
2022/05/20 11:29:23;;;;;;;10.68;9.57;;;;;;;;;;5052179;28;20469;-82
2022/05/20 11:31:53;;;;;;;12.35;11.20;;;;;;;;;;5047638;28;20421;-83
2022/05/20 11:34:26;;;;;;;11.65;10.65;;;;;;;;;;5054123;28;20436;-82
2022/05/20 11:37:00;;;;;;;11.90;10.80;;;;;;;;;;5050960;28;20421;-82
2022/05/20 11:39:35;;;;;;;12.50;11.40;;;;;;;;;;5053994;28;20985;-82
2022/05/20 11:42:11;;;;;;;12.25;11.05;;;;;;;;;;5050169;28;20452;-83
2022/05/20 11:44:48;;;;;;;11.82;10.73;;;;;;;;;;5052723;28;20433;-82
2022/05/20 11:47:34;;;;;;;13.32;12.13;;;;;;;;;;5053419;28;20421;-82
2022/05/20 11:50:11;;;;;;;11.93;10.85;;;;;;;;;;5049941;28;20492;-83
2022/05/20 11:52:46;;;;;;;12.98;11.88;;;;;;;;;;5051954;28;20417;-83
2022/05/20 11:55:18;;;;;;;14.00;12.60;;;;;;;;;;5051959;28;20482;-81
2022/05/20 11:57:47;;;;;;;12.50;11.40;;;;;;;;;;5051986;28;20839;-81
2022/05/20 12:00:19;;;;;;;10.40;9.50;;;;;;;;;;5052612;28;20456;-83
2022/05/20 12:02:49;;;;;;;12.30;11.30;;;;;;;;;;5046041;28;20425;-82
2022/05/20 12:05:17;;;;;;;13.18;12.07;;;;;;;;;;5050958;28;20433;-83
2022/05/20 12:07:45;;;;;;;12.20;11.00;;;;;;;;;;5050520;28;20499;-81
2022/05/20 12:10:32;;;;;;;11.77;10.57;;;;;;;;;;5054262;28;20942;-83
2022/05/20 12:13:08;;;;;;;11.20;10.20;;;;;;;;;;5047478;28;21361;-82
2022/05/20 12:15:41;;;;;;;13.10;11.90;;;;;;;;;;5050992;28;20469;-83
2022/05/20 12:24:11;;;;;;;11.07;10.07;;;;;;;;;;5055885;28;21428;-84
2022/05/20 12:24:15;;;;;;;10.00;9.00;;;;;;;;;;5043151;22;20452;-82
2022/05/20 12:26:47;;;;;;;11.32;9.43;;;;;;;;;;5022703;28;20437;-82
2022/05/20 12:29:43;;;;;;;10.90;9.40;;;;;;;;;;5023611;28;20982;-82
2022/05/20 12:32:24;;;;;;;10.88;9.98;;;;;;;;;;4977903;28;20444;-81
2022/05/20 12:34:54;;;;;;;9.97;9.13;;;;;;;;;;5012989;28;20487;-81
2022/05/20 12:37:35;;;;;;;9.05;8.25;;;;;;;;;;5010616;28;20452;-78
2022/05/20 12:40:02;;;;;;;9.10;8.13;;;;;;;;;;5010466;28;20444;-80
2022/05/20 12:42:40;;;;;;;11.23;9.95;;;;;;;;;;5011120;28;20425;-80
2022/05/20 12:45:07;;;;;;;9.63;8.73;;;;;;;;;;5011133;28;20440;-82
2022/05/20 12:47:34;;;;;;;9.65;8.75;;;;;;;;;;5010894;28;20468;-79
2022/05/20 12:50:03;;;;;;;11.18;7.88;;;;;;;;;;5009922;28;21051;-80
2022/05/20 12:52:31;;;;;;;10.97;8.80;;;;;;;;;;5009374;28;20834;-80
2022/05/20 12:54:58;;;;;;;11.32;8.77;;;;;;;;;;5011591;28;20965;-82
2022/05/20 12:57:27;;;;;;;8.35;7.15;;;;;;;;;;5010023;28;20432;-82
2022/05/20 12:59:58;;;;;;;10.60;7.80;;;;;;;;;;5011458;28;20499;-83
2022/05/20 13:02:33;;;;;;;10.95;9.23;;;;;;;;;;5009338;28;20479;-80
2022/05/20 13:05:02;;;;;;;11.20;8.10;;;;;;;;;;5013193;28;20494;-83
2022/05/20 13:07:28;;;;;;;8.80;7.32;;;;;;;;;;5011813;28;20435;-82
2022/05/20 13:09:54;;;;;;;8.98;7.18;;;;;;;;;;5007274;28;20483;-79
2022/05/20 13:12:21;;;;;;;7.70;6.90;;;;;;;;;;5011463;28;20440;-80
2022/05/20 13:14:57;;;;;;;8.77;7.25;;;;;;;;;;5013697;28;20424;-83
2022/05/20 13:17:23;;;;;;;7.27;6.57;;;;;;;;;;5010606;28;20474;-81
2022/05/20 13:19:51;;;;;;;6.60;5.57;;;;;;;;;;5009414;28;20854;-82
2022/05/20 13:22:21;;;;;;;9.10;5.95;;;;;;;;;;5011559;28;20425;-82
2022/05/20 13:24:52;;;;;;;7.85;4.40;;;;;;;;;;5012239;28;20444;-82
2022/05/20 13:27:20;;;;;;;6.93;4.20;;;;;;;;;;5011727;28;20428;-82
2022/05/20 13:29:47;;;;;;;5.65;3.60;;;;;;;;;;5008867;28;20498;-78
2022/05/20 13:32:20;;;;;;;4.72;4.20;;;;;;;;;;5008481;28;20460;-80
2022/05/20 13:34:47;;;;;;;4.73;3.60;;;;;;;;;;5013656;28;20469;-81
2022/05/20 13:37:15;;;;;;;5.75;3.90;;;;;;;;;;5009465;28;20491;-81
2022/05/20 13:39:42;;;;;;;5.10;4.17;;;;;;;;;;5012558;28;20440;-81
2022/05/20 13:42:09;;;;;;;6.90;4.10;;;;;;;;;;5011064;28;20468;-79
2022/05/20 13:44:35;;;;;;;5.13;4.40;;;;;;;;;;5012512;28;20494;-82
2022/05/20 13:49:53;;;;;;;8.70;5.60;;;;;;;;;;4949728;28;20437;-80
2022/05/20 13:52:19;;;;;;;5.78;5.22;;;;;;;;;;5011894;28;20443;-81
2022/05/20 13:54:47;;;;;;;7.55;5.95;;;;;;;;;;5012185;28;20436;-81
2022/05/20 13:57:14;;;;;;;6.22;4.80;;;;;;;;;;5011980;28;20443;-80
2022/05/20 13:59:41;;;;;;;8.52;5.68;;;;;;;;;;5010509;28;20475;-82
2022/05/20 14:02:12;;;;;;;8.35;5.40;;;;;;;;;;5005672;28;20440;-79
2022/05/20 14:04:41;;;;;;;6.07;4.70;;;;;;;;;;5010613;28;20502;-80
2022/05/20 14:07:10;;;;;;;4.70;4.20;;;;;;;;;;5009150;28;20433;-80
2022/05/20 14:09:40;;;;;;;6.03;3.90;;;;;;;;;;5011861;28;20436;-81
2022/05/20 14:12:10;;;;;;;5.22;4.18;;;;;;;;;;5006886;28;20438;-82
2022/05/20 14:14:38;;;;;;;6.60;4.30;;;;;;;;;;5009259;28;20443;-81
2022/05/20 14:17:05;;;;;;;4.90;4.38;;;;;;;;;;5002688;28;20456;-80
2022/05/20 14:19:36;;;;;;;7.05;4.40;;;;;;;;;;5009877;28;20474;-84
2022/05/20 14:22:04;;;;;;;6.10;4.22;;;;;;;;;;4999749;28;20477;-80
2022/05/20 14:24:34;;;;;;;6.87;4.50;;;;;;;;;;5010860;28;20455;-81
2022/05/20 14:27:00;;;;;;;6.00;5.40;;;;;;;;;;5009381;28;20494;-81
2022/05/20 14:29:29;;;;;;;5.40;4.90;;;;;;;;;;5008524;28;20919;-80
2022/05/20 14:31:56;;;;;;;7.03;4.63;;;;;;;;;;5006412;28;20429;-81
2022/05/20 14:34:24;;;;;;;5.70;4.45;;;;;;;;;;5003237;28;20428;-80
2022/05/20 14:36:51;;;;;;;5.25;4.30;;;;;;;;;;5007708;28;20464;-81
2022/05/20 14:39:18;;;;;;;6.37;4.70;;;;;;;;;;5006783;28;20467;-80
2022/05/20 14:41:54;;;;;;;5.45;4.15;;;;;;;;;;5005597;28;20479;-79
2022/05/20 14:44:21;;;;;;;7.72;4.50;;;;;;;;;;5008309;28;20436;-79
2022/05/20 14:49:33;;;;;;;5.25;4.28;;;;;;;;;;5008476;28;20571;-79
2022/05/20 14:51:59;;;;;;;4.82;3.80;;;;;;;;;;5000311;28;20451;-79
2022/05/20 14:54:28;;;;;;;5.13;3.43;;;;;;;;;;5007843;28;20425;-79
2022/05/20 14:56:55;;;;;;;4.27;3.60;;;;;;;;;;5008863;28;20435;-82
2022/05/20 14:59:29;;;;;;;6.10;3.88;;;;;;;;;;5005628;28;20444;-79
2022/05/20 15:01:57;;;;;;;5.75;3.40;;;;;;;;;;5005891;28;20507;-79
2022/05/20 15:04:24;;;;;;;7.40;3.67;;;;;;;;;;5006245;28;20487;-79
2022/05/20 15:06:53;;;;;;;4.97;3.70;;;;;;;;;;5004586;28;20830;-79
2022/05/20 15:09:22;;;;;;;4.00;3.60;;;;;;;;;;5005967;28;20463;-79
2022/05/20 15:11:48;;;;;;;5.63;4.28;;;;;;;;;;5006949;28;20794;-79
2022/05/20 15:14:16;;;;;;;7.10;4.53;;;;;;;;;;5008731;28;20557;-80
2022/05/20 15:16:45;;;;;;;6.75;4.00;;;;;;;;;;5006500;28;20870;-80
2022/05/20 15:19:12;;;;;;;6.75;4.00;;;;;;;;;;5007571;28;20432;-81
2022/05/20 15:21:39;;;;;;;8.23;4.35;;;;;;;;;;5009178;28;20760;-79
2022/05/20 15:24:08;;;;;;;7.30;4.80;;;;;;;;;;5006744;28;20428;-80